Time;durP1;ratioP1;P1;durP2;ratioP2;P2;SDS_P1;SDS_P2;PMS_P1;PMS_P2;Temp;Humidity;BMP_temperature;BMP_pressure;BME280_temperature;BME280_humidity;BME280_pressure;Samples;Min_cycle;Max_cycle;Signal;HPM_P1;HPM_P2
2022/06/18 00:00:25;;;;;;;6.00;2.17;;;;;;;24.90;45.88;101682.03;5091819;28;20032;-71
2022/06/18 00:02:50;;;;;;;5.20;2.28;;;;;;;24.91;46.08;101677.16;5093014;28;20468;-70
2022/06/18 00:05:19;;;;;;;3.67;2.40;;;;;;;24.86;46.14;101683.84;5084116;28;20051;-70
2022/06/18 00:07:48;;;;;;;4.93;2.75;;;;;;;24.81;46.10;101686.84;5100528;28;20463;-70
2022/06/18 00:10:21;;;;;;;4.18;2.50;;;;;;;24.82;46.15;101687.69;5092388;28;20570;-70
2022/06/18 00:15:39;;;;;;;5.38;2.83;;;;;;;24.82;46.42;101680.00;5041845;28;20204;-70
2022/06/18 00:18:11;;;;;;;3.72;2.55;;;;;;;24.82;46.69;101679.16;5093919;28;20019;-70
2022/06/18 00:20:38;;;;;;;4.65;2.80;;;;;;;24.81;46.94;101671.81;5092362;28;20487;-70
2022/06/18 00:23:12;;;;;;;3.25;2.45;;;;;;;24.78;46.74;101676.16;5098689;28;20028;-70
2022/06/18 00:25:40;;;;;;;4.55;2.72;;;;;;;24.76;46.91;101669.13;5092177;28;20024;-70
2022/06/18 00:28:14;;;;;;;5.28;2.78;;;;;;;24.76;47.04;101671.94;5093501;28;20023;-70
2022/06/18 00:30:41;;;;;;;5.68;2.67;;;;;;;24.72;47.11;101669.78;5097049;28;20038;-70
2022/06/18 00:33:07;;;;;;;4.90;2.92;;;;;;;24.63;47.30;101666.06;5091412;28;20490;-70
2022/06/18 00:35:33;;;;;;;4.72;2.85;;;;;;;24.60;47.74;101666.75;5093631;28;20033;-70
2022/06/18 00:38:00;;;;;;;4.85;2.53;;;;;;;24.66;47.55;101667.44;5093082;28;20463;-70
2022/06/18 00:40:29;;;;;;;7.47;3.10;;;;;;;24.54;47.62;101667.22;5089612;28;20019;-70
2022/06/18 00:42:59;;;;;;;4.55;3.15;;;;;;;24.60;47.21;101672.44;5090145;28;20032;-70
2022/06/18 00:45:28;;;;;;;4.90;2.85;;;;;;;24.56;47.46;101670.56;5073453;28;20468;-70
2022/06/18 00:48:18;;;;;;;6.15;3.13;;;;;;;24.57;47.20;101664.56;5081265;28;20063;-70
2022/06/18 00:50:48;;;;;;;4.07;2.80;;;;;;;24.52;47.97;101664.69;5089476;28;20470;-70
2022/06/18 00:53:19;;;;;;;4.03;3.15;;;;;;;24.52;48.08;101663.84;5091787;28;20050;-70
2022/06/18 00:56:00;;;;;;;3.97;2.97;;;;;;;24.51;47.84;101663.03;5092784;28;20036;-70
2022/06/18 00:58:41;;;;;;;5.75;2.83;;;;;;;24.51;47.57;101665.03;5081097;28;20024;-70
2022/06/18 01:01:16;;;;;;;4.30;2.80;;;;;;;24.47;47.67;101668.53;5090331;28;20024;-71
2022/06/18 01:03:46;;;;;;;6.10;2.95;;;;;;;24.45;48.33;101664.34;5089089;28;20069;-71
2022/06/18 01:06:32;;;;;;;8.95;3.25;;;;;;;24.48;47.93;101664.53;5089631;28;20038;-71
2022/06/18 01:09:07;;;;;;;7.15;3.00;;;;;;;24.33;49.31;101662.09;5087467;28;20055;-71
2022/06/18 01:11:36;;;;;;;6.50;3.22;;;;;;;24.34;48.81;101657.25;5081141;28;20483;-71
2022/06/18 01:14:05;;;;;;;4.93;3.17;;;;;;;24.34;48.98;101662.94;5093970;28;20035;-72
2022/06/18 01:16:32;;;;;;;10.10;3.38;;;;;;;24.30;49.21;101645.72;5092569;28;20024;-71
2022/06/18 01:19:02;;;;;;;5.53;3.00;;;;;;;24.25;49.55;101640.22;5088241;28;20044;-71
2022/06/18 01:21:38;;;;;;;4.00;3.00;;;;;;;24.30;48.64;101642.88;5105161;28;20080;-71
2022/06/18 01:24:21;;;;;;;5.53;3.53;;;;;;;24.23;48.93;101646.19;5092257;28;20059;-71
2022/06/18 01:26:49;;;;;;;5.55;3.40;;;;;;;24.22;49.39;101644.53;5087863;28;20776;-70
2022/06/18 01:29:14;;;;;;;5.25;3.22;;;;;;;24.21;49.26;101648.53;5092187;28;20386;-71
2022/06/18 01:31:40;;;;;;;3.13;2.83;;;;;;;24.20;49.53;101646.84;5092870;28;20061;-71
2022/06/18 01:34:08;;;;;;;6.80;3.00;;;;;;;24.19;49.55;101655.69;5083314;28;20031;-71
2022/06/18 01:36:35;;;;;;;5.55;3.28;;;;;;;24.18;49.55;101654.84;5083753;28;20020;-70
2022/06/18 01:39:04;;;;;;;7.25;3.50;;;;;;;24.12;49.93;101650.47;5091748;28;20057;-71
2022/06/18 01:41:52;;;;;;;3.30;3.00;;;;;;;24.13;49.99;101657.84;5091147;28;20790;-70
2022/06/18 01:44:17;;;;;;;5.47;3.03;;;;;;;24.14;49.58;101648.16;5083661;28;20073;-71
2022/06/18 01:46:47;;;;;;;5.97;3.17;;;;;;;24.09;49.95;101647.44;5081880;28;20186;-71
2022/06/18 01:49:17;;;;;;;7.80;3.28;;;;;;;24.07;49.97;101633.59;5090337;28;20281;-71
2022/06/18 01:51:47;;;;;;;5.10;3.22;;;;;;;24.06;49.71;101643.28;5085797;28;20043;-70
2022/06/18 01:54:40;;;;;;;7.95;3.97;;;;;;;23.99;50.13;101643.72;5090075;28;20411;-70
2022/06/18 01:57:13;;;;;;;4.32;3.30;;;;;;;24.01;49.99;101643.41;5075722;28;20394;-70
2022/06/18 01:59:46;;;;;;;7.32;4.10;;;;;;;23.95;50.18;101647.56;5091531;28;20173;-70
2022/06/18 02:02:11;;;;;;;6.13;3.75;;;;;;;24.00;50.28;101633.22;5090751;28;20080;-69
2022/06/18 02:04:37;;;;;;;6.47;3.67;;;;;;;23.95;50.17;101636.22;5091443;28;20020;-70
2022/06/18 02:07:06;;;;;;;7.25;3.38;;;;;;;23.94;50.65;101640.22;5075273;28;20040;-70
2022/06/18 02:09:58;;;;;;;6.28;3.70;;;;;;;23.97;49.87;101636.69;5082890;28;20059;-70
2022/06/18 02:12:30;;;;;;;5.75;3.10;;;;;;;23.93;50.50;101641.34;5075584;28;20032;-70
2022/06/18 02:15:02;;;;;;;;;;;;;;;24.12;49.13;101635.44;5081680;28;20016;-70
2022/06/18 02:17:28;;;;;;;5.05;3.40;;;;;;;23.93;50.45;101630.88;5089482;28;20423;-71
2022/06/18 02:20:07;;;;;;;6.07;3.83;;;;;;;23.86;50.66;101633.31;5092255;28;20390;-71
2022/06/18 02:22:46;;;;;;;8.18;3.80;;;;;;;23.89;50.27;101634.66;5091136;28;20028;-71
2022/06/18 02:25:13;;;;;;;5.80;4.15;;;;;;;23.84;50.63;101644.13;5089856;28;20107;-70
2022/06/18 02:27:39;;;;;;;8.13;3.90;;;;;;;23.81;50.96;101626.94;5084102;28;20114;-70
2022/06/18 02:30:13;;;;;;;6.05;4.03;;;;;;;23.80;50.89;101631.78;5083863;28;20033;-70
2022/06/18 02:32:50;;;;;;;6.78;4.20;;;;;;;23.71;50.56;101634.56;5087307;28;20043;-70
2022/06/18 02:35:16;;;;;;;8.23;3.72;;;;;;;23.75;50.60;101638.41;5076600;28;20059;-70
2022/06/18 02:37:42;;;;;;;8.48;4.25;;;;;;;23.75;50.50;101629.91;5089954;28;20070;-71
2022/06/18 02:40:24;;;;;;;5.53;4.40;;;;;;;23.80;50.41;101639.44;5089373;28;20032;-70
2022/06/18 02:42:53;;;;;;;5.07;3.72;;;;;;;23.74;50.60;101633.91;5077597;28;20029;-70
2022/06/18 02:45:21;;;;;;;5.30;4.15;;;;;;;23.71;50.69;101637.41;5074497;28;20840;-70
2022/06/18 02:47:50;;;;;;;8.98;4.43;;;;;;;23.69;50.31;101631.19;5098665;28;20081;-69
2022/06/18 02:50:18;;;;;;;6.90;4.25;;;;;;;23.67;50.32;101627.88;5087855;28;20539;-70
2022/06/18 02:52:54;;;;;;;7.47;4.25;;;;;;;23.59;50.56;101622.94;5086902;28;20024;-71
2022/06/18 02:55:33;;;;;;;6.32;4.25;;;;;;;23.61;50.62;101623.44;5078466;28;20032;-69
2022/06/18 02:58:26;;;;;;;8.32;4.43;;;;;;;23.70;49.95;101629.22;5094300;28;20147;-70
2022/06/18 03:00:55;;;;;;;8.40;4.90;;;;;;;23.61;50.54;101626.28;5082663;28;20036;-70
2022/06/18 03:03:24;;;;;;;6.57;4.70;;;;;;;23.50;50.69;101634.22;5088741;28;20442;-70
2022/06/18 03:05:52;;;;;;;5.88;3.92;;;;;;;23.58;50.54;101624.13;5088193;28;20032;-70
2022/06/18 03:08:22;;;;;;;5.95;4.45;;;;;;;23.57;50.85;101628.09;5095784;28;20040;-70
2022/06/18 03:13:32;;;;;;;7.28;4.60;;;;;;;23.56;50.89;101629.25;5089198;28;20043;-70
2022/06/18 03:15:58;;;;;;;7.90;4.47;;;;;;;23.56;50.74;101636.91;5098472;28;20437;-70
2022/06/18 03:18:27;;;;;;;5.78;3.45;;;;;;;23.56;50.86;101643.41;5077693;28;20032;-71
2022/06/18 03:21:30;;;;;;;6.30;4.40;;;;;;;23.59;50.40;101641.94;5081698;28;20043;-71
2022/06/18 03:23:55;;;;;;;9.93;5.05;;;;;;;23.50;50.88;101633.34;5089914;28;20044;-70
2022/06/18 03:26:23;;;;;;;9.20;4.60;;;;;;;23.50;50.97;101639.03;5088000;28;20020;-70
2022/06/18 03:28:49;;;;;;;6.05;4.45;;;;;;;23.49;50.94;101634.53;5085171;28;20036;-70
2022/06/18 03:31:14;;;;;;;6.05;4.68;;;;;;;23.47;51.02;101640.53;5070588;28;20457;-71
2022/06/18 03:33:41;;;;;;;7.88;4.40;;;;;;;23.46;51.11;101643.66;5070044;28;20032;-71
2022/06/18 03:36:08;;;;;;;7.90;4.10;;;;;;;23.44;51.43;101638.34;5089087;28;20510;-70
2022/06/18 03:38:34;;;;;;;6.05;4.38;;;;;;;23.46;51.31;101643.66;5083406;28;20051;-70
2022/06/18 03:40:59;;;;;;;7.45;4.75;;;;;;;23.43;51.61;101644.34;5089374;28;20049;-70
2022/06/18 03:43:26;;;;;;;7.63;5.10;;;;;;;23.35;51.56;101642.25;5087792;28;20055;-71
2022/06/18 03:45:56;;;;;;;5.68;4.85;;;;;;;23.34;51.43;101654.72;5088030;28;20101;-70
2022/06/18 03:48:39;;;;;;;6.50;4.97;;;;;;;23.39;51.29;101654.63;5084705;28;20040;-70
2022/06/18 03:51:07;;;;;;;6.95;4.53;;;;;;;23.38;51.25;101644.44;5075314;28;20052;-71
2022/06/18 03:53:32;;;;;;;8.43;4.53;;;;;;;23.38;51.90;101635.94;5080067;28;20036;-71
2022/06/18 03:55:58;;;;;;;6.22;4.57;;;;;;;23.37;51.46;101637.94;5086022;28;20023;-70
2022/06/18 03:58:27;;;;;;;7.40;4.93;;;;;;;23.34;51.87;101638.56;5093623;28;20032;-70
2022/06/18 04:00:53;;;;;;;10.10;5.35;;;;;;;23.24;52.21;101631.16;5093661;28;20473;-70
2022/06/18 04:03:18;;;;;;;6.00;4.70;;;;;;;23.33;51.70;101631.22;5079257;28;20102;-70
2022/06/18 04:05:43;;;;;;;7.63;4.93;;;;;;;23.34;51.78;101634.91;5094027;28;20474;-70
2022/06/18 04:08:13;;;;;;;9.90;5.15;;;;;;;23.31;51.86;101630.72;5097500;28;20507;-71
2022/06/18 04:10:39;;;;;;;8.15;4.70;;;;;;;23.28;51.77;101631.38;5090673;28;20028;-70
2022/06/18 04:13:05;;;;;;;8.13;4.78;;;;;;;23.31;52.15;101627.06;5092607;28;20035;-70
2022/06/18 04:15:30;;;;;;;9.77;5.20;;;;;;;23.29;52.05;101616.03;5091626;28;20360;-70
2022/06/18 04:17:55;;;;;;;5.68;5.13;;;;;;;23.27;52.14;101619.22;5102377;28;20241;-70
2022/06/18 04:20:24;;;;;;;9.65;4.63;;;;;;;23.27;52.12;101619.22;5084108;28;20108;-70
2022/06/18 04:22:50;;;;;;;6.35;5.20;;;;;;;23.24;52.26;101619.84;5091767;28;20139;-70
2022/06/18 04:25:16;;;;;;;8.27;4.93;;;;;;;23.25;52.34;101618.69;5091434;28;20694;-70
2022/06/18 04:27:42;;;;;;;9.20;5.30;;;;;;;23.28;52.38;101623.72;5102065;28;20032;-70
2022/06/18 04:30:08;;;;;;;8.80;5.50;;;;;;;23.27;52.09;101624.88;5081505;28;20031;-70
2022/06/18 04:32:35;;;;;;;6.05;5.40;;;;;;;23.29;52.43;101627.38;5089250;28;20085;-71
2022/06/18 04:35:02;;;;;;;7.35;5.40;;;;;;;23.28;52.09;101620.88;5087784;28;20037;-71
2022/06/18 04:37:27;;;;;;;7.72;6.18;;;;;;;23.26;52.30;101623.22;5091903;28;20027;-71
2022/06/18 04:39:52;;;;;;;9.13;6.00;;;;;;;23.21;52.08;101631.81;5088484;28;20117;-70
2022/06/18 04:42:17;;;;;;;8.45;6.20;;;;;;;23.14;52.26;101622.06;5094156;28;20024;-71
2022/06/18 04:44:43;;;;;;;10.50;6.35;;;;;;;23.20;52.49;101615.97;5090185;28;20467;-70
2022/06/18 04:47:08;;;;;;;9.35;5.07;;;;;;;23.25;52.37;101620.69;5093224;28;20047;-70
2022/06/18 04:49:33;;;;;;;10.65;5.88;;;;;;;23.26;52.52;101620.38;5097755;28;20016;-70
2022/06/18 04:51:59;;;;;;;8.38;5.75;;;;;;;23.26;52.20;101619.50;5091696;28;20032;-70
2022/06/18 04:54:24;;;;;;;11.77;6.07;;;;;;;23.27;52.14;101626.88;5086721;28;20390;-71
2022/06/18 04:56:49;;;;;;;8.65;6.38;;;;;;;23.25;52.18;101629.16;5104903;28;20471;-70
2022/06/18 04:59:15;;;;;;;9.63;6.93;;;;;;;23.19;52.30;101622.81;5095716;28;20035;-70
2022/06/18 05:01:40;;;;;;;8.55;6.32;;;;;;;23.25;52.26;101623.50;5093086;28;20059;-70
2022/06/18 05:04:07;;;;;;;9.63;6.70;;;;;;;23.27;52.38;101624.03;5098448;28;20019;-70
2022/06/18 05:06:33;;;;;;;9.07;6.35;;;;;;;23.27;52.12;101624.88;5082502;28;20399;-70
2022/06/18 05:08:58;;;;;;;7.63;6.22;;;;;;;23.33;51.97;101628.41;5089201;28;20043;-70
2022/06/18 05:11:23;;;;;;;10.77;7.03;;;;;;;23.33;52.32;101628.41;5089541;28;20098;-68
2022/06/18 05:13:49;;;;;;;9.90;6.40;;;;;;;23.34;52.51;101626.41;5094465;28;20386;-72
2022/06/18 05:16:14;;;;;;;13.75;6.90;;;;;;;23.34;52.41;101624.41;5095146;28;20127;-68
2022/06/18 05:18:44;;;;;;;14.13;7.80;;;;;;;23.26;52.62;101626.03;5081876;28;20374;-67
2022/06/18 05:21:10;;;;;;;9.00;7.57;;;;;;;23.30;52.53;101629.03;5093436;28;20016;-67
2022/06/18 05:23:35;;;;;;;13.60;7.50;;;;;;;23.34;52.07;101634.91;5086321;28;20032;-68
2022/06/18 05:26:01;;;;;;;13.13;7.93;;;;;;;23.35;52.11;101643.09;5101843;28;20538;-71
2022/06/18 05:28:27;;;;;;;8.82;6.45;;;;;;;23.42;52.45;101645.47;5091180;28;20028;-72
2022/06/18 05:30:52;;;;;;;13.75;7.65;;;;;;;23.45;52.28;101647.66;5077762;28;20036;-71
2022/06/18 05:33:18;;;;;;;13.10;7.63;;;;;;;23.45;52.62;101642.84;5091867;28;20031;-70
2022/06/18 05:35:44;;;;;;;10.13;9.13;;;;;;;23.41;52.33;101638.97;5080191;28;20407;-70
2022/06/18 05:38:18;;;;;;;10.00;8.70;;;;;;;23.46;52.24;101655.88;5085687;28;20441;-71
2022/06/18 05:40:44;;;;;;;8.63;7.72;;;;;;;23.47;52.40;101651.03;5097849;28;20159;-71
2022/06/18 05:43:12;;;;;;;9.27;7.75;;;;;;;23.50;52.48;101651.22;5090223;28;20051;-71
2022/06/18 05:45:38;;;;;;;9.93;7.30;;;;;;;23.54;52.46;101657.09;5094492;28;20051;-71
2022/06/18 05:48:04;;;;;;;10.57;6.28;;;;;;;23.58;52.07;101652.44;5089495;28;20032;-69
2022/06/18 05:50:29;;;;;;;9.98;6.35;;;;;;;23.59;52.04;101647.63;5088361;28;20487;-69
2022/06/18 05:52:55;;;;;;;9.80;6.97;;;;;;;23.60;52.36;101654.94;5089033;28;20035;-70
2022/06/18 05:55:21;;;;;;;8.10;6.07;;;;;;;23.63;51.66;101649.47;5096205;28;20089;-70
2022/06/18 05:57:52;;;;;;;13.35;7.18;;;;;;;23.65;51.97;101652.81;5088130;28;20035;-69
2022/06/18 06:00:20;;;;;;;6.65;5.35;;;;;;;23.71;51.60;101645.91;5087588;28;20567;-70
2022/06/18 06:02:46;;;;;;;10.85;6.00;;;;;;;23.69;52.12;101648.19;5090452;28;20106;-71
2022/06/18 06:05:12;;;;;;;9.43;6.25;;;;;;;23.74;51.92;101644.44;5090826;28;20423;-71
2022/06/18 06:07:37;;;;;;;10.70;6.15;;;;;;;23.76;51.71;101648.59;5090033;28;20051;-70
2022/06/18 06:13:08;;;;;;;13.13;7.10;;;;;;;23.83;51.16;101630.31;5075182;28;20039;-70
2022/06/18 06:15:34;;;;;;;13.20;5.78;;;;;;;23.89;51.41;101637.50;5090216;28;20038;-71
2022/06/18 06:18:00;;;;;;;14.65;6.35;;;;;;;23.88;50.92;101635.81;5088331;28;20024;-71
2022/06/18 06:20:28;;;;;;;15.57;5.90;;;;;;;23.90;50.57;101627.84;5100095;28;20546;-69
2022/06/18 06:22:54;;;;;;;12.95;6.30;;;;;;;23.92;50.59;101631.19;5088356;28;20051;-70
2022/06/18 06:25:19;;;;;;;10.63;5.57;;;;;;;23.94;50.81;101637.38;5090878;28;20109;-70
2022/06/18 06:27:44;;;;;;;13.05;5.85;;;;;;;23.95;50.39;101633.38;5090874;28;20062;-70
2022/06/18 06:30:13;;;;;;;12.73;5.60;;;;;;;24.00;50.54;101633.22;5093523;28;20036;-70
2022/06/18 06:32:39;;;;;;;15.80;5.78;;;;;;;23.98;50.54;101630.72;5095173;28;20020;-71
2022/06/18 06:35:05;;;;;;;8.07;4.90;;;;;;;24.02;50.62;101633.75;5090694;28;20371;-71
2022/06/18 06:37:31;;;;;;;12.02;5.88;;;;;;;24.04;50.18;101630.56;5089917;28;20027;-71
2022/06/18 06:39:57;;;;;;;12.18;6.15;;;;;;;24.10;49.96;101632.97;5094911;28;20027;-71
2022/06/18 06:42:22;;;;;;;14.07;5.93;;;;;;;24.17;50.12;101635.31;5096260;28;20032;-68
2022/06/18 06:44:47;;;;;;;13.35;5.68;;;;;;;24.18;49.99;101637.00;5089671;28;20024;-69
2022/06/18 06:47:16;;;;;;;12.27;6.03;;;;;;;24.19;50.13;101638.66;5091903;28;20027;-70
2022/06/18 06:49:42;;;;;;;11.30;5.95;;;;;;;24.20;49.95;101629.81;5092337;28;20424;-69
2022/06/18 06:52:09;;;;;;;15.45;6.43;;;;;;;24.20;50.15;101629.81;5098251;28;20028;-70
2022/06/18 06:54:35;;;;;;;13.70;6.47;;;;;;;24.19;49.93;101628.16;5090674;28;20024;-70
2022/06/18 06:59:44;;;;;;;13.57;6.47;;;;;;;24.31;49.16;101632.38;5091100;28;20050;-70
2022/06/18 07:02:16;;;;;;;13.70;5.70;;;;;;;24.33;49.43;101625.22;5087174;28;20514;-70
2022/06/18 07:04:41;;;;;;;14.00;6.40;;;;;;;24.40;49.79;101634.09;5086275;28;20111;-70
2022/06/18 07:07:11;;;;;;;9.02;5.25;;;;;;;24.43;49.47;101636.28;5073169;28;20114;-70
2022/06/18 07:09:36;;;;;;;13.02;5.78;;;;;;;24.47;49.71;101630.78;5087784;28;20147;-70
2022/06/18 07:12:02;;;;;;;12.38;6.10;;;;;;;24.51;50.13;101637.47;5074430;28;20104;-70
2022/06/18 07:14:28;;;;;;;16.30;6.38;;;;;;;24.52;49.58;101633.47;5082371;28;20428;-70
2022/06/18 07:16:53;;;;;;;10.57;5.80;;;;;;;24.58;49.35;101639.84;5084377;28;20032;-70
2022/06/18 07:19:19;;;;;;;12.45;6.20;;;;;;;24.61;49.30;101640.03;5094289;28;20073;-70
2022/06/18 07:21:45;;;;;;;10.30;5.45;;;;;;;24.66;49.26;101637.03;5090274;28;20450;-69
2022/06/18 07:24:10;;;;;;;9.82;5.65;;;;;;;24.75;49.48;101637.06;5078075;28;20132;-69
2022/06/18 07:26:36;;;;;;;14.13;6.18;;;;;;;24.76;49.70;101640.72;5094551;28;20039;-70
2022/06/18 07:29:02;;;;;;;11.80;5.53;;;;;;;24.80;49.94;101627.53;5076217;28;20048;-71
2022/06/18 07:31:32;;;;;;;10.55;6.03;;;;;;;24.82;49.71;101634.56;5089941;28;20475;-71
2022/06/18 07:33:58;;;;;;;8.32;5.28;;;;;;;24.86;50.21;101629.06;5090463;28;20067;-70
2022/06/18 07:36:24;;;;;;;13.35;5.88;;;;;;;24.91;49.80;101621.22;5090857;28;20530;-70
2022/06/18 07:38:49;;;;;;;10.88;5.55;;;;;;;24.98;49.59;101627.25;5092268;28;20028;-69
2022/06/18 07:41:19;;;;;;;11.13;6.35;;;;;;;25.00;50.66;101626.91;5094187;28;20111;-70
2022/06/18 07:43:54;;;;;;;9.02;5.38;;;;;;;25.07;49.78;101624.41;5095259;28;20016;-70
2022/06/18 07:46:19;;;;;;;10.60;5.72;;;;;;;25.11;49.74;101625.47;5087817;28;20091;-70
2022/06/18 07:48:45;;;;;;;18.50;5.65;;;;;;;25.23;48.95;101627.66;5085439;28;20036;-70
2022/06/18 07:51:16;;;;;;;11.57;5.38;;;;;;;25.30;48.89;101622.28;5090911;28;20032;-70
2022/06/18 07:53:43;;;;;;;10.73;5.72;;;;;;;25.39;49.21;101625.13;5089161;28;20028;-70
2022/06/18 07:56:08;;;;;;;10.95;5.65;;;;;;;25.32;49.05;101619.94;5092084;28;20520;-70
2022/06/18 07:58:34;;;;;;;10.43;5.38;;;;;;;25.38;49.02;101623.44;5081498;28;20044;-69
2022/06/18 08:00:59;;;;;;;11.38;5.90;;;;;;;25.40;48.98;101609.75;5091011;28;20066;-70
2022/06/18 08:03:25;;;;;;;13.85;6.13;;;;;;;25.45;49.17;101606.72;5094234;28;20032;-70
2022/06/18 08:05:52;;;;;;;15.30;5.78;;;;;;;25.50;49.04;101606.53;5106343;28;20023;-65
2022/06/18 08:08:17;;;;;;;12.43;4.93;;;;;;;25.62;48.87;101606.72;5096702;28;20087;-65
2022/06/18 08:10:48;;;;;;;11.95;6.05;;;;;;;25.65;49.17;101603.16;5094300;28;20153;-65
2022/06/18 08:13:13;;;;;;;14.93;5.90;;;;;;;25.71;48.83;101609.53;5093302;28;20024;-65
2022/06/18 08:15:39;;;;;;;12.95;5.55;;;;;;;25.84;48.52;101602.81;5103566;28;20130;-65
2022/06/18 08:18:05;;;;;;;12.20;5.35;;;;;;;25.88;47.91;101600.16;5090055;28;20448;-65
2022/06/18 08:20:31;;;;;;;15.00;5.63;;;;;;;25.89;48.60;101598.97;5089846;28;20035;-66
2022/06/18 08:22:57;;;;;;;19.25;5.88;;;;;;;25.96;48.85;101593.59;5095118;28;20032;-66
2022/06/18 08:25:26;;;;;;;15.85;6.13;;;;;;;25.93;48.55;101588.56;5092500;28;20060;-67
2022/06/18 08:27:52;;;;;;;12.52;5.57;;;;;;;26.02;48.44;101591.41;5087670;28;20540;-68
2022/06/18 08:30:18;;;;;;;10.20;5.30;;;;;;;26.04;48.55;101581.34;5093614;28;20036;-67
2022/06/18 08:32:44;;;;;;;10.73;5.60;;;;;;;26.12;48.80;101576.78;5092702;28;20032;-66
2022/06/18 08:35:10;;;;;;;11.77;5.75;;;;;;;26.17;48.52;101574.63;5095669;28;20084;-66
2022/06/18 08:37:37;;;;;;;13.20;5.75;;;;;;;26.24;48.01;101582.59;5101914;28;20032;-66
2022/06/18 08:40:34;;;;;;;13.00;5.93;;;;;;;26.23;48.15;101577.25;5093722;28;20035;-67
2022/06/18 08:43:06;;;;;;;15.48;5.72;;;;;;;26.30;48.32;101575.53;5082374;28;20384;-66
2022/06/18 08:45:58;;;;;;;16.13;6.15;;;;;;;26.35;48.63;101580.22;5099384;28;20114;-66
2022/06/18 08:48:44;;;;;;;12.52;5.70;;;;;;;26.38;48.54;101580.34;5090135;28;20529;-66
2022/06/18 08:51:26;;;;;;;10.68;5.13;;;;;;;26.56;48.38;101572.56;5091065;28;20475;-65
2022/06/18 08:54:20;;;;;;;11.70;5.35;;;;;;;26.61;48.05;101580.94;5093118;28;20042;-71
2022/06/18 08:56:58;;;;;;;16.13;5.95;;;;;;;26.69;48.01;101582.06;5105854;28;20035;-68
2022/06/18 08:59:36;;;;;;;14.02;5.53;;;;;;;26.73;47.56;101587.91;5092105;28;20126;-67
2022/06/18 09:02:14;;;;;;;13.18;5.63;;;;;;;26.73;47.40;101583.03;5084490;28;20057;-66
2022/06/18 09:05:14;;;;;;;12.88;5.30;;;;;;;26.82;46.97;101591.50;5079026;28;20095;-66
2022/06/18 09:08:02;;;;;;;12.75;5.18;;;;;;;26.84;46.64;101594.81;5036086;28;20065;-66
2022/06/18 09:10:34;;;;;;;13.20;5.80;;;;;;;26.82;46.83;101583.78;5078728;28;20036;-66
2022/06/18 09:13:25;;;;;;;15.05;5.63;;;;;;;26.97;47.11;101588.03;5088752;28;20081;-66
2022/06/18 09:15:56;;;;;;;15.48;5.35;;;;;;;26.98;47.21;101589.69;5079696;28;20037;-67
2022/06/18 09:18:36;;;;;;;14.80;6.43;;;;;;;27.01;47.91;101597.56;5085198;28;20386;-67
2022/06/18 09:21:10;;;;;;;13.63;6.00;;;;;;;27.06;47.88;101594.50;5083880;28;20026;-67
2022/06/18 09:23:59;;;;;;;15.15;6.50;;;;;;;27.13;47.80;101582.56;5085741;28;20042;-66
2022/06/18 09:26:35;;;;;;;13.77;6.43;;;;;;;27.10;47.61;101584.09;5073487;28;20098;-66
2022/06/18 09:29:10;;;;;;;17.55;6.05;;;;;;;27.15;47.43;101595.28;5078755;28;20043;-67
2022/06/18 09:31:45;;;;;;;18.48;6.90;;;;;;;27.20;47.90;101597.09;5082155;28;20023;-66
2022/06/18 09:34:19;;;;;;;18.63;6.43;;;;;;;27.25;47.76;101594.03;5074612;28;20035;-67
2022/06/18 09:36:49;;;;;;;15.98;5.95;;;;;;;27.27;46.92;101590.81;5080816;28;20034;-63
2022/06/18 09:39:33;;;;;;;18.65;6.97;;;;;;;27.28;46.70;101599.03;5080373;28;20041;-63
2022/06/18 09:42:25;;;;;;;15.30;6.22;;;;;;;27.35;47.12;101589.91;5084561;28;20102;-65
2022/06/18 09:45:00;;;;;;;15.48;6.15;;;;;;;27.35;46.66;101578.50;5086925;28;20077;-66
2022/06/18 09:47:42;;;;;;;19.20;7.55;;;;;;;27.38;47.20;101583.50;5078353;28;20051;-65
2022/06/18 09:50:28;;;;;;;;;;;;;;;27.40;47.11;101573.44;5086916;28;20036;-65
2022/06/18 09:53:23;;;;;;;14.82;6.20;;;;;;;27.50;47.03;101574.19;5060118;28;19920;-66
2022/06/18 09:55:53;;;;;;;16.98;5.97;;;;;;;27.61;46.38;101567.69;5087445;28;20042;-65
2022/06/18 09:58:27;;;;;;;16.27;5.65;;;;;;;27.57;46.58;101572.41;5090082;28;20356;-64
2022/06/18 10:00:55;;;;;;;15.82;6.72;;;;;;;27.71;46.47;101572.13;5089805;28;21011;-66
2022/06/18 10:08:57;;;;;;;18.17;6.68;;;;;;;27.81;46.58;101570.84;5087506;28;20407;-66
2022/06/18 10:11:24;;;;;;;16.45;6.70;;;;;;;27.83;46.01;101565.66;5081651;28;20020;-66
2022/06/18 10:14:00;;;;;;;14.48;6.57;;;;;;;27.81;46.66;101562.28;5082483;28;20055;-66
2022/06/18 10:16:44;;;;;;;19.70;6.55;;;;;;;27.88;46.10;101562.56;5080213;28;20024;-67
2022/06/18 10:19:37;;;;;;;23.58;7.38;;;;;;;27.94;46.02;101557.44;5089153;28;20036;-66
2022/06/18 10:22:23;;;;;;;17.23;6.43;;;;;;;28.03;46.03;101555.31;5085539;28;20031;-66
2022/06/18 10:24:54;;;;;;;12.95;5.55;;;;;;;28.12;46.58;101554.00;5088398;28;20036;-67
2022/06/18 10:27:49;;;;;;;12.53;6.03;;;;;;;28.11;46.11;101558.06;5085399;28;20024;-65
2022/06/18 10:30:33;;;;;;;16.50;6.32;;;;;;;28.10;45.92;101547.84;5080267;28;20043;-65
2022/06/18 10:33:16;;;;;;;18.80;6.70;;;;;;;28.17;45.01;101541.53;5082217;28;20493;-65
2022/06/18 10:36:08;;;;;;;16.45;6.30;;;;;;;28.27;45.29;101546.75;5083315;28;20023;-67
2022/06/18 10:38:50;;;;;;;13.55;5.82;;;;;;;28.34;45.14;101544.16;5084121;28;20612;-66
2022/06/18 10:41:44;;;;;;;16.25;6.80;;;;;;;28.40;45.28;101538.22;5072082;28;20024;-66
2022/06/18 10:44:37;;;;;;;15.68;6.55;;;;;;;28.43;45.50;101535.47;5074511;28;20037;-65
2022/06/18 10:47:15;;;;;;;15.25;5.70;;;;;;;28.58;44.91;101531.91;5078491;28;20086;-66
2022/06/18 10:49:40;;;;;;;18.15;6.15;;;;;;;28.63;45.20;101522.25;5077829;28;20078;-66
2022/06/18 10:52:16;;;;;;;12.32;6.30;;;;;;;28.56;45.41;101522.84;5078174;28;20024;-66
2022/06/18 10:54:41;;;;;;;17.65;6.47;;;;;;;28.61;44.44;101528.31;5082565;28;20025;-65
2022/06/18 10:57:21;;;;;;;15.27;6.03;;;;;;;28.56;44.78;101525.69;5082797;28;20119;-66
2022/06/18 10:59:47;;;;;;;13.65;5.72;;;;;;;28.67;44.23;101522.34;5081475;28;20042;-67
2022/06/18 11:02:20;;;;;;;12.73;5.28;;;;;;;28.74;44.56;101519.72;5073676;28;20020;-67
2022/06/18 11:04:57;;;;;;;20.20;6.95;;;;;;;28.78;44.75;101517.81;5070269;28;20501;-66
2022/06/18 11:07:26;;;;;;;19.88;6.50;;;;;;;28.93;44.46;101514.19;5080618;28;20032;-64
2022/06/18 11:10:00;;;;;;;16.40;6.38;;;;;;;28.90;43.65;101502.66;5074116;28;20090;-66
2022/06/18 11:12:28;;;;;;;18.05;6.55;;;;;;;28.84;44.42;101504.91;5075925;28;20028;-63
2022/06/18 11:14:55;;;;;;;22.60;6.47;;;;;;;28.90;43.97;101499.78;5086609;28;20020;-64
2022/06/18 11:17:36;;;;;;;18.13;6.57;;;;;;;28.92;43.76;101488.81;5078500;28;20059;-64
2022/06/18 11:20:26;;;;;;;13.50;5.97;;;;;;;28.96;44.57;101484.88;5083888;28;20043;-65
2022/06/18 11:23:04;;;;;;;17.30;5.70;;;;;;;29.10;43.24;101478.78;5078502;28;20032;-65
2022/06/18 11:25:39;;;;;;;17.30;5.95;;;;;;;29.14;43.70;101484.59;5082876;28;20044;-66
2022/06/18 11:28:20;;;;;;;14.68;5.97;;;;;;;29.26;43.23;101479.63;5079685;28;20519;-66
2022/06/18 11:30:49;;;;;;;16.90;6.30;;;;;;;29.23;43.29;101477.50;5079354;28;20066;-63
2022/06/18 11:33:29;;;;;;;19.90;6.03;;;;;;;29.37;43.12;101467.69;5073276;28;20071;-65
2022/06/18 11:35:54;;;;;;;13.27;6.10;;;;;;;29.35;43.58;101465.16;5075467;28;20020;-65
2022/06/18 11:38:33;;;;;;;15.50;5.88;;;;;;;29.31;43.71;101467.94;5082300;28;20032;-64
2022/06/18 11:41:12;;;;;;;14.15;6.07;;;;;;;29.40;43.79;101458.34;5082833;28;20028;-66
2022/06/18 11:43:43;;;;;;;14.95;6.10;;;;;;;29.38;43.51;101455.88;5086019;28;20114;-66
2022/06/18 11:46:15;;;;;;;16.40;6.05;;;;;;;29.52;43.09;101444.00;5078792;28;20029;-66
2022/06/18 11:48:53;;;;;;;18.30;6.40;;;;;;;29.53;43.21;101443.59;5071646;28;20115;-67
2022/06/18 11:51:33;;;;;;;15.88;6.03;;;;;;;29.50;44.07;101440.66;5084344;28;20530;-65
2022/06/18 11:54:22;;;;;;;17.25;6.38;;;;;;;29.49;44.17;101445.53;5078008;28;20118;-66
2022/06/18 11:56:51;;;;;;;16.17;6.70;;;;;;;29.45;42.83;101440.94;5077993;28;20136;-65